Sierra Nevada Aquatic Research Lab (SNARL) Reserve, California Weather observations

Data are for 10 minute period ending at time listed.
 Day   Time   Solar   Ave.   Ave.  Ave.  Vector  Max.   Baro.   Total    
  of    of     Rad.   Air    Rel.  Wind   Wind   Wind  Press.  Precip.   
Year   Day            Temp.  Hum.  Speed  Dir.   Gust                    
2015   (PST)  Kw/m2    F      %     mph   deg.    mph    mb.     in.     
-------------------------------------------------------------------------
 185    0:50   0.00   55.3    67    4.4   240     7.2   786.7    0.00 
 185    1:00   0.00   56.6    65    3.4   248     6.2   786.7    0.00 
 185    1:10   0.00   56.2    66    1.0    41     2.9   786.7    0.00 
 185    1:20   0.00   53.2    72    2.5    86     4.5   786.7    0.00 
 185    1:30   0.00   53.0    74    1.4    95     3.9   786.8    0.00 
 185    1:40   0.00   53.2    74    2.9   231     6.0   786.7    0.00 
 185    1:50   0.00   53.6    73    1.9   105     2.9   786.5    0.00 
 185    2:00   0.00   53.7    74    2.1   350     5.1   786.5    0.00 
 185    2:10   0.00   53.9    73    1.1   101     2.9   786.4    0.00 
 185    2:20   0.00   54.8    72    3.9   319     7.5   786.4    0.00 
 185    2:30   0.00   57.4    66    3.1   285     7.5   786.5    0.00 
 185    2:40   0.00   57.1    67    0.8   342     3.0   786.4    0.00 
 185    2:50   0.00   56.1    70    2.0   332     5.0   786.4    0.00 
 185    3:00   0.00   55.4    71    1.4   254     4.5   786.4    0.00 
 185    3:10   0.00   55.2    72    2.5   102     3.4   786.4    0.00 
 185    3:20   0.00   55.0    73    1.4    86     3.3   786.5    0.00 
 185    3:30   0.00   54.2    74    2.7    75     5.2   786.6    0.00 
 185    3:40   0.00   53.2    76    1.4   255     3.1   786.6    0.00 
 185    3:50   0.00   53.2    78    1.4    57     3.0   786.6    0.00 
 185    4:00   0.00   52.9    78    2.9   242     4.4   786.5    0.00 
 185    4:10   0.00   53.4    77    1.6   266     4.4   786.5    0.00 
 185    4:20   0.00   53.2    78    3.3     6     7.4   786.7    0.00 
 185    4:30   0.00   53.4    77    3.2   260     5.3   786.7    0.00 
 185    4:40   0.00   52.8    78    4.2   237     6.2   786.7    0.00 
 185    4:50   0.00   52.1    80    2.6   252     5.0   786.6    0.00 
 185    5:00   0.01   52.7    78    1.8   246     3.2   786.6    0.00 
 185    5:10   0.03   54.8    74    2.1   314     4.5   786.7    0.00 
 185    5:20   0.01   55.4    74    1.3   355     3.7   786.9    0.00 
 185    5:30   0.01   55.7    73    2.0    39     4.9   786.9    0.00 
 185    5:40   0.02   55.3    76    1.2   250     2.6   787.0    0.00 
 185    5:50   0.03   55.1    78    2.1   241     2.8   787.0    0.00 
 185    6:00   0.03   55.7    76    1.6    77     6.1   787.2    0.00 
 185    6:10   0.04   56.1    76    2.6    29     6.5   787.4    0.00 
 185    6:20   0.04   56.2    77    2.6   249     5.0   787.4    0.00 
 185    6:30   0.05   56.5    76    1.0    29     2.9   787.5    0.00 
 185    6:40   0.07   56.8    76    1.3    51     3.8   787.6    0.00 
 185    6:50   0.07   57.2    74    1.9   162     2.9   787.6    0.00 
 185    7:00   0.07   57.5    74    3.4   229     5.3   787.5    0.00 
 185    7:10   0.09   58.7    72    3.1   258     6.0   787.4    0.00 
 185    7:20   0.08   59.9    68    3.9   296     6.1   787.3    0.00 
 185    7:30   0.09   61.3    64    4.3   357    10.7   787.3    0.00 
 185    7:40   0.11   61.7    62    2.8     4     8.3   787.6    0.00 
 185    7:50   0.13   61.9    62    1.3   319     3.4   787.7    0.00 
 185    8:00   0.19   62.4    61    2.1   219     4.5   787.8    0.00 
 185    8:10   0.19   63.1    60    3.6   218     5.3   787.8    0.00 
 185    8:20   0.19   63.9    56    3.4   194     5.0   787.8    0.00 
 185    8:30   0.20   64.9    54    3.3   194     5.3   787.8    0.00 
 185    8:40   0.19   65.5    51    3.9   212     5.3   787.7    0.00 
 185    8:50   0.22   66.4    51    3.6   228     6.6   787.8    0.00 
 185    9:00   0.23   67.2    47    1.7   283     3.9   787.8    0.00 
 185    9:10   0.20   67.5    48    3.2   331     5.3   787.7    0.00 
 185    9:20   0.17   67.1    49    2.5    16     4.7   787.8    0.00 
 185    9:30   0.22   67.9    45    0.8   108     2.9   787.9    0.00 
 185    9:40   0.24   68.8    44    1.1    55     2.6   787.9    0.00 
 185    9:50   0.33   69.0    44    3.3    66     9.1   788.0    0.00 
 185   10:00   0.36   69.3    44    3.4    68     6.7   788.1    0.00 
 185   10:10   0.32   69.1    42    6.4    85    11.5   788.2    0.00 
 185   10:20   0.29   69.3    40    8.6    92    14.2   788.1    0.00 
 185   10:30   0.30   69.7    37   11.4    99    17.0   788.1    0.00 
 185   10:40   0.32   69.7    37   12.3    92    16.9   788.1    0.00 
 185   10:50   0.34   69.7    38   13.2    89    18.7   788.0    0.00 
 185   11:00   0.34   69.8    37   13.3    90    20.5   788.0    0.00 
 185   11:10   0.36   69.9    36   16.5    97    22.3   787.9    0.00 
 185   11:20   0.38   69.9    38   14.8   102    22.4   787.9    0.00 
 185   11:30   0.48   70.1    38   15.9    99    22.4   787.9    0.00 
 185   11:40   0.52   70.4    38   14.3    91    22.9   787.9    0.00 
 185   11:50   0.45   69.6    40   12.3    81    19.0   787.8    0.00 
 185   12:00   0.49   69.6    41   10.8    83    16.9   787.8    0.00 
 185   12:10   0.55   69.8    40   10.8    81    17.2   787.8    0.00 
 185   12:20   0.52   69.8    41    9.9    74    16.8   787.7    0.00 
 185   12:30   0.54   69.8    40   11.4    82    17.3   787.7    0.00 
 185   12:40   0.38   69.6    40   10.3    89    17.0   787.6    0.00 
 185   12:50   0.51   69.4    40   10.2    82    17.0   787.5    0.00 
 185   13:00   0.78   70.6    38   11.0    83    17.5   787.4    0.00 
 185   13:10   0.72   71.2    38    9.6    90    16.2   787.2    0.00 
 185   13:20   1.01   72.4    37    9.5    85    16.4   787.1    0.00 
 185   13:30   0.76   73.9    35    8.3    85    18.4   787.1    0.00 
 185   13:40   0.81   73.3    36    8.2    79    15.0   787.1    0.00 
 185   13:50   0.60   72.6    35    9.8    91    15.2   787.1    0.00 
 185   14:00   0.28   72.4    35   10.1   108    17.8   787.0    0.00 
 185   14:10   0.14   70.5    39    7.3    98    14.0   787.1    0.00 
 185   14:20   0.09   67.2    56    5.1   112     9.4   787.1    0.00 
 185   14:30   0.07   65.2    60    5.9   157    10.7   786.9    0.00 
 185   14:40   0.09   65.6    49    8.8   175    13.5   786.6    0.00 
 185   14:50   0.23   67.0    45   11.1   216    17.8   786.5    0.00 
 185   15:00   0.29   69.2    42    7.0   216    13.8   786.4    0.00 
 185   15:10   0.42   72.0    37    7.1   227    12.9   786.3    0.00 
 185   15:20   0.37   73.2    35    9.7   228    20.2   786.3    0.00 
 185   15:30   0.38   73.1    34    8.6   214    15.8   786.2    0.00 
 185   15:40   0.24   73.0    35    9.3   222    14.0   786.2    0.00 
 185   15:50   0.27   72.4    36    6.9   224    11.1   786.1    0.00 
 185   16:00   0.10   71.7    36    4.1   210     7.3   786.2    0.00 
 185   16:10   0.07   71.2    37    5.0   212     7.2   786.2    0.00 
 185   16:20   0.06   71.2    36    2.6   174     4.7   786.2    0.00 
 185   16:30   0.04   71.0    39    3.5   161     8.0   786.2    0.00 
 185   16:40   0.03   69.5    42    7.8   199    13.8   786.3    0.00 
 185   16:50   0.03   69.0    40    6.8   212    13.9   786.3    0.00 
 185   17:00   0.04   69.2    40    3.8   222     9.9   786.3    0.00 
 185   17:10   0.04   69.1    43    2.7   272     5.8   786.2    0.00 
 185   17:20   0.04   68.4    41    3.7   277     6.5   786.3    0.00 
 185   17:30   0.03   68.3    40    5.8    90    12.8   786.4    0.00 
 185   17:40   0.04   67.9    42    3.0   114     8.3   786.5    0.00 
 185   17:50   0.10   67.5    44    5.3   310     9.3   786.6    0.00 
 185   18:00   0.13   69.7    39    5.5   277     9.2   786.6    0.00 
 185   18:10   0.19   69.8    42    8.0   279    16.9   786.8    0.00 
 185   18:20   0.12   69.0    43   11.4   276    18.6   787.1    0.01 
 185   18:30   0.04   67.4    47    8.9   291    15.2   787.3    0.00 
 185   18:40   0.04   66.7    48    5.8   307    11.2   787.5    0.00 
 185   18:50   0.06   65.9    50    7.0   286    12.4   787.6    0.00 
 185   19:00   0.06   65.6    51    7.4   276    14.2   787.6    0.00 
 185   19:10   0.03   65.1    52    5.6   294    10.3   787.7    0.00 
 185   19:20   0.01   64.2    54    8.0   279    12.3   787.7    0.00 
 185   19:30   0.00   63.4    56    5.4   294    10.2   787.7    0.00 
 185   19:40   0.00   62.4    58    3.6   287     7.2   787.8    0.00 
 185   19:50   0.00   61.6    60    4.6   267     6.9   787.8    0.00 
 185   20:00   0.00   61.5    60    5.1   263     8.6   787.9    0.00 
 185   20:10   0.00   61.5    60    6.6   249    10.1   787.8    0.00 
 185   20:20   0.00   61.5    60    5.3   241     9.0   787.8    0.00 
 185   20:30   0.00   61.3    61    2.4   201     4.5   787.8    0.00 
 185   20:40   0.00   60.3    62    2.0   184     3.9   787.8    0.00 
 185   20:50   0.00   59.4    64    0.7   200     1.7   787.6    0.00 
 185   21:00   0.00   58.0    66    1.0    21     2.0   787.7    0.00 
 185   21:10   0.00   57.2    69    0.7   175     1.8   787.8    0.00 
 185   21:20   0.00   56.7    69    1.8   262     3.7   787.8    0.00 
 185   21:30   0.00   56.2    70    4.3   215     5.6   787.8    0.00 
 185   21:40   0.00   56.0    71    4.2   247     5.6   787.8    0.00 
 185   21:50   0.00   56.6    71    2.7   240     4.8   787.8    0.00 
 185   22:00   0.00   56.7    70    2.2   227     2.9   787.7    0.00 
 185   22:10   0.00   55.3    72    2.7   223     3.4   787.7    0.00 
 185   22:20   0.00   54.2    74    2.7   214     3.8   787.7    0.00 
 185   22:30   0.00   54.1    74    3.4   241     4.5   787.5    0.00 
 185   22:40   0.00   54.1    75    2.8   215     5.6   787.4    0.00 
 185   22:50   0.00   55.5    73    1.6   227     4.1   787.5    0.00 
 185   23:00   0.00   55.1    74    3.2   247     5.6   787.5    0.00 
 185   23:10   0.00   53.3    78    2.4   265     4.0   787.4    0.00 
 185   23:20   0.00   52.6    79    0.3   321     1.5   787.4    0.00 
 185   23:30   0.00   50.8    82    2.6   252     4.4   787.4    0.00 
 185   23:40   0.00   50.2    84    2.0   289     3.2   787.2    0.00 
 185   23:50   0.00   49.3    85    1.1   346     5.2   787.2    0.00 
 186    0:00   0.00   49.9    83    2.6   269     5.6   787.2    0.00 
 186    0:10   0.00   48.9    84    0.9    79     3.0   787.4    0.00 
 186    0:20   0.00   47.6    86    1.4   118     2.7   787.4    0.00 
 186    0:30   0.00   46.7    89    1.2   241     2.5   787.3    0.00 
 186    0:40   0.00   47.0    88    2.4   232     3.8   787.4    0.00 

Return to SNARL Reserve graphs page.


Western Regional Climate Center,wrcc@dri.edu